sensor_id;sensor_type;location;lat;lon;timestamp;P1;durP1;ratioP1;P2;durP2;ratioP2
15104;SDS011;7653;48.994;9.212;2023-04-06T00:01:44;10.13;;;6.70;;
15104;SDS011;7653;48.994;9.212;2023-04-06T00:04:11;9.60;;;6.93;;
15104;SDS011;7653;48.994;9.212;2023-04-06T00:06:37;10.83;;;6.90;;
15104;SDS011;7653;48.994;9.212;2023-04-06T00:09:03;10.30;;;7.47;;
15104;SDS011;7653;48.994;9.212;2023-04-06T00:11:28;10.90;;;7.80;;
15104;SDS011;7653;48.994;9.212;2023-04-06T00:13:54;10.37;;;7.70;;
15104;SDS011;7653;48.994;9.212;2023-04-06T00:16:20;9.77;;;6.80;;
15104;SDS011;7653;48.994;9.212;2023-04-06T00:18:46;10.60;;;7.50;;
15104;SDS011;7653;48.994;9.212;2023-04-06T00:21:12;10.00;;;7.50;;
15104;SDS011;7653;48.994;9.212;2023-04-06T00:23:39;10.10;;;7.57;;
15104;SDS011;7653;48.994;9.212;2023-04-06T00:26:05;11.50;;;7.90;;
15104;SDS011;7653;48.994;9.212;2023-04-06T00:28:31;9.17;;;7.53;;
15104;SDS011;7653;48.994;9.212;2023-04-06T00:30:57;11.57;;;7.27;;
15104;SDS011;7653;48.994;9.212;2023-04-06T00:33:22;9.93;;;7.10;;
15104;SDS011;7653;48.994;9.212;2023-04-06T00:35:48;10.33;;;7.13;;
15104;SDS011;7653;48.994;9.212;2023-04-06T00:38:14;9.07;;;6.80;;
15104;SDS011;7653;48.994;9.212;2023-04-06T00:40:41;10.83;;;7.57;;
15104;SDS011;7653;48.994;9.212;2023-04-06T00:43:09;8.13;;;7.33;;
15104;SDS011;7653;48.994;9.212;2023-04-06T00:45:37;11.87;;;7.30;;
15104;SDS011;7653;48.994;9.212;2023-04-06T00:48:04;9.37;;;6.53;;
15104;SDS011;7653;48.994;9.212;2023-04-06T00:50:30;11.07;;;7.00;;
15104;SDS011;7653;48.994;9.212;2023-04-06T00:52:56;10.20;;;7.90;;
15104;SDS011;7653;48.994;9.212;2023-04-06T00:55:22;10.77;;;7.80;;
15104;SDS011;7653;48.994;9.212;2023-04-06T00:57:47;11.13;;;7.87;;
15104;SDS011;7653;48.994;9.212;2023-04-06T01:00:15;10.17;;;7.47;;
15104;SDS011;7653;48.994;9.212;2023-04-06T01:02:41;10.97;;;7.50;;
15104;SDS011;7653;48.994;9.212;2023-04-06T01:05:07;8.83;;;7.47;;
15104;SDS011;7653;48.994;9.212;2023-04-06T01:07:33;9.43;;;7.50;;
15104;SDS011;7653;48.994;9.212;2023-04-06T01:09:59;11.13;;;7.53;;
15104;SDS011;7653;48.994;9.212;2023-04-06T01:12:24;9.20;;;7.60;;
15104;SDS011;7653;48.994;9.212;2023-04-06T01:14:50;10.07;;;7.70;;
15104;SDS011;7653;48.994;9.212;2023-04-06T01:17:16;9.97;;;7.57;;
15104;SDS011;7653;48.994;9.212;2023-04-06T01:19:41;10.57;;;8.17;;
15104;SDS011;7653;48.994;9.212;2023-04-06T01:22:07;10.93;;;7.40;;
15104;SDS011;7653;48.994;9.212;2023-04-06T01:24:33;9.80;;;7.50;;
15104;SDS011;7653;48.994;9.212;2023-04-06T01:26:59;11.43;;;7.67;;
15104;SDS011;7653;48.994;9.212;2023-04-06T01:29:25;8.93;;;7.67;;
15104;SDS011;7653;48.994;9.212;2023-04-06T01:31:51;11.00;;;8.27;;
15104;SDS011;7653;48.994;9.212;2023-04-06T01:34:17;13.43;;;8.40;;
15104;SDS011;7653;48.994;9.212;2023-04-06T01:36:43;11.30;;;8.10;;
15104;SDS011;7653;48.994;9.212;2023-04-06T01:39:08;10.60;;;8.07;;
15104;SDS011;7653;48.994;9.212;2023-04-06T01:41:34;12.90;;;8.87;;
15104;SDS011;7653;48.994;9.212;2023-04-06T01:44:01;10.00;;;8.23;;
15104;SDS011;7653;48.994;9.212;2023-04-06T01:46:27;10.77;;;8.00;;
15104;SDS011;7653;48.994;9.212;2023-04-06T01:48:52;10.87;;;7.73;;
15104;SDS011;7653;48.994;9.212;2023-04-06T01:51:18;10.60;;;8.03;;
15104;SDS011;7653;48.994;9.212;2023-04-06T01:53:44;9.67;;;7.67;;
15104;SDS011;7653;48.994;9.212;2023-04-06T01:56:10;11.77;;;8.23;;
15104;SDS011;7653;48.994;9.212;2023-04-06T01:58:36;9.53;;;8.13;;
15104;SDS011;7653;48.994;9.212;2023-04-06T02:01:01;9.97;;;7.73;;
15104;SDS011;7653;48.994;9.212;2023-04-06T02:03:27;10.03;;;7.43;;
15104;SDS011;7653;48.994;9.212;2023-04-06T02:05:53;11.10;;;8.00;;
15104;SDS011;7653;48.994;9.212;2023-04-06T02:08:18;10.73;;;7.83;;
15104;SDS011;7653;48.994;9.212;2023-04-06T02:10:44;10.73;;;7.93;;
15104;SDS011;7653;48.994;9.212;2023-04-06T02:13:10;11.43;;;8.20;;
15104;SDS011;7653;48.994;9.212;2023-04-06T02:15:36;11.47;;;8.27;;
15104;SDS011;7653;48.994;9.212;2023-04-06T02:18:01;11.27;;;7.40;;
15104;SDS011;7653;48.994;9.212;2023-04-06T02:20:27;10.93;;;8.13;;
15104;SDS011;7653;48.994;9.212;2023-04-06T02:22:52;10.17;;;7.87;;
15104;SDS011;7653;48.994;9.212;2023-04-06T02:25:18;10.40;;;8.10;;
15104;SDS011;7653;48.994;9.212;2023-04-06T02:27:44;9.87;;;7.90;;
15104;SDS011;7653;48.994;9.212;2023-04-06T02:30:09;13.20;;;8.33;;
15104;SDS011;7653;48.994;9.212;2023-04-06T02:32:35;11.13;;;7.63;;
15104;SDS011;7653;48.994;9.212;2023-04-06T02:35:01;11.43;;;8.10;;
15104;SDS011;7653;48.994;9.212;2023-04-06T02:37:27;11.90;;;8.77;;
15104;SDS011;7653;48.994;9.212;2023-04-06T02:39:53;11.80;;;8.60;;
15104;SDS011;7653;48.994;9.212;2023-04-06T02:42:19;13.17;;;7.80;;
15104;SDS011;7653;48.994;9.212;2023-04-06T02:44:45;11.03;;;8.53;;
15104;SDS011;7653;48.994;9.212;2023-04-06T02:47:11;11.27;;;8.23;;
15104;SDS011;7653;48.994;9.212;2023-04-06T02:49:36;11.40;;;8.37;;
15104;SDS011;7653;48.994;9.212;2023-04-06T02:52:02;12.73;;;8.47;;
15104;SDS011;7653;48.994;9.212;2023-04-06T02:54:31;10.80;;;8.70;;
15104;SDS011;7653;48.994;9.212;2023-04-06T02:56:57;11.43;;;7.93;;
15104;SDS011;7653;48.994;9.212;2023-04-06T02:59:23;10.60;;;8.40;;
15104;SDS011;7653;48.994;9.212;2023-04-06T03:01:48;9.47;;;7.67;;
15104;SDS011;7653;48.994;9.212;2023-04-06T03:04:14;9.20;;;7.67;;
15104;SDS011;7653;48.994;9.212;2023-04-06T03:06:40;12.37;;;8.10;;
15104;SDS011;7653;48.994;9.212;2023-04-06T03:09:06;12.23;;;8.57;;
15104;SDS011;7653;48.994;9.212;2023-04-06T03:11:32;11.47;;;8.27;;
15104;SDS011;7653;48.994;9.212;2023-04-06T03:13:57;10.90;;;8.43;;
15104;SDS011;7653;48.994;9.212;2023-04-06T03:16:24;10.60;;;8.40;;
15104;SDS011;7653;48.994;9.212;2023-04-06T03:18:50;10.70;;;7.90;;
15104;SDS011;7653;48.994;9.212;2023-04-06T03:21:15;11.53;;;8.43;;
15104;SDS011;7653;48.994;9.212;2023-04-06T03:23:41;11.97;;;8.70;;
15104;SDS011;7653;48.994;9.212;2023-04-06T03:26:07;12.70;;;8.43;;
15104;SDS011;7653;48.994;9.212;2023-04-06T03:28:33;9.70;;;7.97;;
15104;SDS011;7653;48.994;9.212;2023-04-06T03:30:59;10.87;;;8.10;;
15104;SDS011;7653;48.994;9.212;2023-04-06T03:33:24;9.77;;;8.57;;
15104;SDS011;7653;48.994;9.212;2023-04-06T03:35:53;9.47;;;8.20;;
15104;SDS011;7653;48.994;9.212;2023-04-06T03:38:19;10.93;;;8.80;;
15104;SDS011;7653;48.994;9.212;2023-04-06T03:40:45;10.23;;;8.00;;
15104;SDS011;7653;48.994;9.212;2023-04-06T03:43:11;12.83;;;8.70;;
15104;SDS011;7653;48.994;9.212;2023-04-06T03:45:37;11.63;;;7.97;;
15104;SDS011;7653;48.994;9.212;2023-04-06T03:48:03;12.43;;;9.00;;
15104;SDS011;7653;48.994;9.212;2023-04-06T03:50:28;13.50;;;9.00;;
15104;SDS011;7653;48.994;9.212;2023-04-06T03:52:54;13.73;;;9.07;;
15104;SDS011;7653;48.994;9.212;2023-04-06T03:55:20;12.73;;;8.70;;
15104;SDS011;7653;48.994;9.212;2023-04-06T03:57:46;12.47;;;8.70;;
15104;SDS011;7653;48.994;9.212;2023-04-06T04:00:11;10.13;;;7.97;;
15104;SDS011;7653;48.994;9.212;2023-04-06T04:02:38;9.23;;;8.07;;
15104;SDS011;7653;48.994;9.212;2023-04-06T04:05:03;11.47;;;8.03;;
15104;SDS011;7653;48.994;9.212;2023-04-06T04:07:29;12.77;;;8.13;;
15104;SDS011;7653;48.994;9.212;2023-04-06T04:09:55;11.23;;;8.80;;
15104;SDS011;7653;48.994;9.212;2023-04-06T04:12:21;13.03;;;8.93;;
15104;SDS011;7653;48.994;9.212;2023-04-06T04:14:47;10.33;;;7.97;;
15104;SDS011;7653;48.994;9.212;2023-04-06T04:17:13;11.57;;;8.33;;
15104;SDS011;7653;48.994;9.212;2023-04-06T04:19:40;11.50;;;8.70;;
15104;SDS011;7653;48.994;9.212;2023-04-06T04:22:05;12.23;;;8.67;;
15104;SDS011;7653;48.994;9.212;2023-04-06T04:24:31;14.97;;;8.87;;
15104;SDS011;7653;48.994;9.212;2023-04-06T04:26:57;13.87;;;8.90;;
15104;SDS011;7653;48.994;9.212;2023-04-06T04:29:25;13.57;;;9.77;;
15104;SDS011;7653;48.994;9.212;2023-04-06T04:31:51;13.10;;;8.33;;
15104;SDS011;7653;48.994;9.212;2023-04-06T04:34:17;11.40;;;8.63;;
15104;SDS011;7653;48.994;9.212;2023-04-06T04:36:45;14.43;;;9.23;;
15104;SDS011;7653;48.994;9.212;2023-04-06T04:39:11;12.23;;;9.13;;
15104;SDS011;7653;48.994;9.212;2023-04-06T04:41:37;13.57;;;9.30;;
15104;SDS011;7653;48.994;9.212;2023-04-06T04:44:03;12.67;;;9.10;;
15104;SDS011;7653;48.994;9.212;2023-04-06T04:46:28;11.77;;;8.97;;
15104;SDS011;7653;48.994;9.212;2023-04-06T04:48:54;11.87;;;9.20;;
15104;SDS011;7653;48.994;9.212;2023-04-06T04:51:20;11.73;;;9.13;;
15104;SDS011;7653;48.994;9.212;2023-04-06T04:53:45;13.63;;;8.47;;
15104;SDS011;7653;48.994;9.212;2023-04-06T04:56:11;12.83;;;9.23;;
15104;SDS011;7653;48.994;9.212;2023-04-06T04:58:37;12.00;;;8.33;;
15104;SDS011;7653;48.994;9.212;2023-04-06T05:01:03;12.53;;;9.00;;
15104;SDS011;7653;48.994;9.212;2023-04-06T05:03:28;14.07;;;9.40;;
15104;SDS011;7653;48.994;9.212;2023-04-06T05:05:54;14.30;;;9.70;;
15104;SDS011;7653;48.994;9.212;2023-04-06T05:08:20;15.73;;;10.13;;
15104;SDS011;7653;48.994;9.212;2023-04-06T05:10:46;11.53;;;9.03;;
15104;SDS011;7653;48.994;9.212;2023-04-06T05:13:13;13.53;;;9.53;;
15104;SDS011;7653;48.994;9.212;2023-04-06T05:15:39;15.97;;;9.87;;
15104;SDS011;7653;48.994;9.212;2023-04-06T05:18:05;14.10;;;10.33;;
15104;SDS011;7653;48.994;9.212;2023-04-06T05:20:32;15.10;;;10.33;;
15104;SDS011;7653;48.994;9.212;2023-04-06T05:22:58;15.10;;;10.40;;
15104;SDS011;7653;48.994;9.212;2023-04-06T05:25:24;15.27;;;10.10;;
15104;SDS011;7653;48.994;9.212;2023-04-06T05:27:50;11.63;;;9.10;;
15104;SDS011;7653;48.994;9.212;2023-04-06T05:30:16;13.60;;;9.83;;
15104;SDS011;7653;48.994;9.212;2023-04-06T05:32:42;15.80;;;9.90;;
15104;SDS011;7653;48.994;9.212;2023-04-06T05:35:09;17.07;;;9.83;;
15104;SDS011;7653;48.994;9.212;2023-04-06T05:37:35;12.73;;;9.40;;
15104;SDS011;7653;48.994;9.212;2023-04-06T05:40:01;15.03;;;10.10;;
15104;SDS011;7653;48.994;9.212;2023-04-06T05:42:27;13.53;;;9.30;;
15104;SDS011;7653;48.994;9.212;2023-04-06T05:45:01;12.27;;;8.80;;
15104;SDS011;7653;48.994;9.212;2023-04-06T05:47:27;13.17;;;9.43;;
15104;SDS011;7653;48.994;9.212;2023-04-06T05:49:53;15.43;;;10.60;;
15104;SDS011;7653;48.994;9.212;2023-04-06T05:52:18;16.73;;;10.23;;
15104;SDS011;7653;48.994;9.212;2023-04-06T05:54:44;14.97;;;10.00;;
15104;SDS011;7653;48.994;9.212;2023-04-06T05:57:10;13.00;;;9.77;;
15104;SDS011;7653;48.994;9.212;2023-04-06T05:59:35;17.33;;;10.37;;
15104;SDS011;7653;48.994;9.212;2023-04-06T06:02:01;12.50;;;9.97;;
15104;SDS011;7653;48.994;9.212;2023-04-06T06:04:27;14.70;;;10.13;;
15104;SDS011;7653;48.994;9.212;2023-04-06T06:06:52;15.63;;;10.20;;
15104;SDS011;7653;48.994;9.212;2023-04-06T06:09:18;21.43;;;12.70;;
15104;SDS011;7653;48.994;9.212;2023-04-06T06:11:44;18.67;;;12.10;;
15104;SDS011;7653;48.994;9.212;2023-04-06T06:14:09;20.87;;;13.30;;
15104;SDS011;7653;48.994;9.212;2023-04-06T06:16:35;33.33;;;14.20;;
15104;SDS011;7653;48.994;9.212;2023-04-06T06:19:01;24.70;;;12.73;;
15104;SDS011;7653;48.994;9.212;2023-04-06T06:21:27;17.87;;;11.83;;
15104;SDS011;7653;48.994;9.212;2023-04-06T06:23:52;16.20;;;10.77;;
15104;SDS011;7653;48.994;9.212;2023-04-06T06:26:19;14.90;;;10.07;;
15104;SDS011;7653;48.994;9.212;2023-04-06T06:28:45;13.77;;;9.90;;
15104;SDS011;7653;48.994;9.212;2023-04-06T06:31:11;13.17;;;9.70;;
15104;SDS011;7653;48.994;9.212;2023-04-06T06:33:37;14.53;;;9.80;;
15104;SDS011;7653;48.994;9.212;2023-04-06T06:36:02;13.03;;;9.67;;
15104;SDS011;7653;48.994;9.212;2023-04-06T06:38:28;34.37;;;10.50;;
15104;SDS011;7653;48.994;9.212;2023-04-06T06:40:54;24.47;;;10.97;;
15104;SDS011;7653;48.994;9.212;2023-04-06T06:43:20;30.03;;;10.80;;
15104;SDS011;7653;48.994;9.212;2023-04-06T06:45:45;26.07;;;10.00;;
15104;SDS011;7653;48.994;9.212;2023-04-06T06:48:11;30.03;;;10.37;;
15104;SDS011;7653;48.994;9.212;2023-04-06T06:50:37;21.63;;;10.20;;
15104;SDS011;7653;48.994;9.212;2023-04-06T06:53:02;23.43;;;10.57;;
15104;SDS011;7653;48.994;9.212;2023-04-06T06:55:28;18.47;;;9.80;;
15104;SDS011;7653;48.994;9.212;2023-04-06T06:57:54;26.93;;;9.97;;
15104;SDS011;7653;48.994;9.212;2023-04-06T07:00:20;30.13;;;9.50;;
15104;SDS011;7653;48.994;9.212;2023-04-06T07:02:46;17.77;;;9.60;;
15104;SDS011;7653;48.994;9.212;2023-04-06T07:05:12;16.37;;;9.13;;
15104;SDS011;7653;48.994;9.212;2023-04-06T07:07:38;19.93;;;10.00;;
15104;SDS011;7653;48.994;9.212;2023-04-06T07:10:04;12.77;;;8.50;;
15104;SDS011;7653;48.994;9.212;2023-04-06T07:12:30;14.40;;;8.87;;
15104;SDS011;7653;48.994;9.212;2023-04-06T07:14:56;15.27;;;8.67;;
15104;SDS011;7653;48.994;9.212;2023-04-06T07:17:22;11.17;;;7.93;;
15104;SDS011;7653;48.994;9.212;2023-04-06T07:19:47;12.40;;;8.00;;
15104;SDS011;7653;48.994;9.212;2023-04-06T07:22:13;15.67;;;8.40;;
15104;SDS011;7653;48.994;9.212;2023-04-06T07:24:39;14.70;;;8.07;;
15104;SDS011;7653;48.994;9.212;2023-04-06T07:27:05;10.83;;;8.13;;
15104;SDS011;7653;48.994;9.212;2023-04-06T07:29:30;13.30;;;7.70;;
15104;SDS011;7653;48.994;9.212;2023-04-06T07:31:56;13.10;;;8.37;;
15104;SDS011;7653;48.994;9.212;2023-04-06T07:34:22;12.17;;;8.17;;
15104;SDS011;7653;48.994;9.212;2023-04-06T07:36:48;14.47;;;9.23;;
15104;SDS011;7653;48.994;9.212;2023-04-06T07:39:14;15.37;;;9.00;;
15104;SDS011;7653;48.994;9.212;2023-04-06T07:41:39;13.00;;;8.23;;
15104;SDS011;7653;48.994;9.212;2023-04-06T07:44:06;11.53;;;7.90;;
15104;SDS011;7653;48.994;9.212;2023-04-06T07:46:31;14.03;;;8.80;;
15104;SDS011;7653;48.994;9.212;2023-04-06T07:48:59;13.37;;;8.80;;
15104;SDS011;7653;48.994;9.212;2023-04-06T07:51:25;10.20;;;7.87;;
15104;SDS011;7653;48.994;9.212;2023-04-06T07:53:52;13.33;;;8.27;;
15104;SDS011;7653;48.994;9.212;2023-04-06T07:56:17;10.07;;;7.80;;
15104;SDS011;7653;48.994;9.212;2023-04-06T07:58:43;8.83;;;7.40;;
15104;SDS011;7653;48.994;9.212;2023-04-06T08:01:09;9.97;;;8.47;;
15104;SDS011;7653;48.994;9.212;2023-04-06T08:03:35;10.83;;;7.27;;
15104;SDS011;7653;48.994;9.212;2023-04-06T08:06:01;13.50;;;8.23;;
15104;SDS011;7653;48.994;9.212;2023-04-06T08:08:27;10.77;;;8.07;;
15104;SDS011;7653;48.994;9.212;2023-04-06T08:10:53;11.97;;;8.20;;
15104;SDS011;7653;48.994;9.212;2023-04-06T08:13:19;14.10;;;7.93;;
15104;SDS011;7653;48.994;9.212;2023-04-06T08:15:45;14.50;;;9.03;;
15104;SDS011;7653;48.994;9.212;2023-04-06T08:18:10;13.50;;;8.20;;
15104;SDS011;7653;48.994;9.212;2023-04-06T08:20:36;12.10;;;7.40;;
15104;SDS011;7653;48.994;9.212;2023-04-06T08:23:02;13.40;;;7.83;;
15104;SDS011;7653;48.994;9.212;2023-04-06T08:25:29;14.17;;;8.67;;
15104;SDS011;7653;48.994;9.212;2023-04-06T08:27:55;9.43;;;7.80;;
15104;SDS011;7653;48.994;9.212;2023-04-06T08:30:21;13.20;;;7.77;;
15104;SDS011;7653;48.994;9.212;2023-04-06T08:32:46;14.20;;;7.93;;
15104;SDS011;7653;48.994;9.212;2023-04-06T08:35:12;9.43;;;7.73;;
15104;SDS011;7653;48.994;9.212;2023-04-06T08:37:38;12.17;;;7.97;;
15104;SDS011;7653;48.994;9.212;2023-04-06T08:40:04;12.87;;;8.30;;
15104;SDS011;7653;48.994;9.212;2023-04-06T08:42:35;11.63;;;8.00;;
15104;SDS011;7653;48.994;9.212;2023-04-06T08:45:06;12.60;;;7.97;;
15104;SDS011;7653;48.994;9.212;2023-04-06T08:47:34;12.63;;;8.07;;
15104;SDS011;7653;48.994;9.212;2023-04-06T08:50:01;11.13;;;7.53;;
15104;SDS011;7653;48.994;9.212;2023-04-06T08:52:29;11.83;;;8.00;;
15104;SDS011;7653;48.994;9.212;2023-04-06T08:54:57;11.87;;;7.67;;
15104;SDS011;7653;48.994;9.212;2023-04-06T08:57:23;15.43;;;7.77;;
15104;SDS011;7653;48.994;9.212;2023-04-06T08:59:50;11.43;;;7.17;;
15104;SDS011;7653;48.994;9.212;2023-04-06T09:02:18;10.23;;;7.93;;
15104;SDS011;7653;48.994;9.212;2023-04-06T09:04:45;11.03;;;7.30;;
15104;SDS011;7653;48.994;9.212;2023-04-06T09:07:13;9.40;;;7.57;;
15104;SDS011;7653;48.994;9.212;2023-04-06T09:09:40;12.23;;;6.93;;
15104;SDS011;7653;48.994;9.212;2023-04-06T09:12:21;7.97;;;6.23;;
15104;SDS011;7653;48.994;9.212;2023-04-06T09:14:51;9.30;;;6.73;;
15104;SDS011;7653;48.994;9.212;2023-04-06T09:17:21;8.93;;;6.60;;
15104;SDS011;7653;48.994;9.212;2023-04-06T09:19:48;9.43;;;7.00;;
15104;SDS011;7653;48.994;9.212;2023-04-06T09:22:14;9.67;;;6.77;;
15104;SDS011;7653;48.994;9.212;2023-04-06T09:27:14;7.30;;;5.97;;
15104;SDS011;7653;48.994;9.212;2023-04-06T09:29:40;11.50;;;7.10;;
15104;SDS011;7653;48.994;9.212;2023-04-06T09:32:07;10.17;;;7.30;;
15104;SDS011;7653;48.994;9.212;2023-04-06T09:34:38;10.10;;;6.90;;
15104;SDS011;7653;48.994;9.212;2023-04-06T09:37:13;11.80;;;6.90;;
15104;SDS011;7653;48.994;9.212;2023-04-06T09:39:40;10.77;;;6.63;;
15104;SDS011;7653;48.994;9.212;2023-04-06T09:42:06;13.23;;;6.87;;
15104;SDS011;7653;48.994;9.212;2023-04-06T09:44:32;15.60;;;6.83;;
15104;SDS011;7653;48.994;9.212;2023-04-06T09:46:57;11.77;;;7.03;;
15104;SDS011;7653;48.994;9.212;2023-04-06T09:49:23;14.10;;;6.10;;
15104;SDS011;7653;48.994;9.212;2023-04-06T09:52:01;11.73;;;6.40;;
15104;SDS011;7653;48.994;9.212;2023-04-06T09:54:30;10.43;;;6.70;;
15104;SDS011;7653;48.994;9.212;2023-04-06T09:57:01;14.03;;;6.87;;
15104;SDS011;7653;48.994;9.212;2023-04-06T09:59:42;10.97;;;6.67;;
15104;SDS011;7653;48.994;9.212;2023-04-06T10:02:24;11.43;;;7.20;;
15104;SDS011;7653;48.994;9.212;2023-04-06T10:04:58;8.97;;;6.27;;
15104;SDS011;7653;48.994;9.212;2023-04-06T10:07:30;8.37;;;7.03;;
15104;SDS011;7653;48.994;9.212;2023-04-06T10:09:56;9.53;;;7.20;;
15104;SDS011;7653;48.994;9.212;2023-04-06T10:12:24;10.87;;;7.20;;
15104;SDS011;7653;48.994;9.212;2023-04-06T10:14:50;8.53;;;6.73;;
15104;SDS011;7653;48.994;9.212;2023-04-06T10:17:16;9.40;;;6.20;;
15104;SDS011;7653;48.994;9.212;2023-04-06T10:22:38;9.47;;;6.00;;
15104;SDS011;7653;48.994;9.212;2023-04-06T10:25:17;9.60;;;6.40;;
15104;SDS011;7653;48.994;9.212;2023-04-06T10:28:08;7.47;;;5.90;;
15104;SDS011;7653;48.994;9.212;2023-04-06T10:30:41;9.53;;;6.00;;
15104;SDS011;7653;48.994;9.212;2023-04-06T10:33:15;7.63;;;5.40;;
15104;SDS011;7653;48.994;9.212;2023-04-06T10:35:42;6.87;;;5.47;;
15104;SDS011;7653;48.994;9.212;2023-04-06T10:38:08;7.47;;;5.23;;
15104;SDS011;7653;48.994;9.212;2023-04-06T10:40:37;7.53;;;5.43;;
15104;SDS011;7653;48.994;9.212;2023-04-06T10:43:20;5.40;;;4.90;;
15104;SDS011;7653;48.994;9.212;2023-04-06T10:45:57;6.53;;;4.73;;
15104;SDS011;7653;48.994;9.212;2023-04-06T10:48:25;7.90;;;5.97;;
15104;SDS011;7653;48.994;9.212;2023-04-06T10:51:15;6.53;;;4.77;;
15104;SDS011;7653;48.994;9.212;2023-04-06T10:53:44;6.53;;;5.30;;
15104;SDS011;7653;48.994;9.212;2023-04-06T10:56:12;8.40;;;6.23;;
15104;SDS011;7653;48.994;9.212;2023-04-06T10:58:43;8.10;;;5.97;;
15104;SDS011;7653;48.994;9.212;2023-04-06T11:01:20;7.43;;;6.40;;
15104;SDS011;7653;48.994;9.212;2023-04-06T11:03:47;9.97;;;7.07;;
15104;SDS011;7653;48.994;9.212;2023-04-06T11:06:27;8.63;;;7.03;;
15104;SDS011;7653;48.994;9.212;2023-04-06T11:08:56;9.00;;;7.00;;
15104;SDS011;7653;48.994;9.212;2023-04-06T11:11:23;8.73;;;7.03;;
15104;SDS011;7653;48.994;9.212;2023-04-06T11:13:58;9.07;;;7.80;;
15104;SDS011;7653;48.994;9.212;2023-04-06T11:18:55;9.23;;;6.60;;
15104;SDS011;7653;48.994;9.212;2023-04-06T11:24:04;24.80;;;16.20;;
15104;SDS011;7653;48.994;9.212;2023-04-06T11:26:30;9.40;;;7.27;;
15104;SDS011;7653;48.994;9.212;2023-04-06T11:28:56;9.73;;;6.97;;
15104;SDS011;7653;48.994;9.212;2023-04-06T11:31:25;9.43;;;7.30;;
15104;SDS011;7653;48.994;9.212;2023-04-06T11:33:57;8.53;;;7.00;;
15104;SDS011;7653;48.994;9.212;2023-04-06T11:36:23;9.87;;;6.77;;
15104;SDS011;7653;48.994;9.212;2023-04-06T11:38:53;12.50;;;8.30;;
15104;SDS011;7653;48.994;9.212;2023-04-06T11:41:22;10.60;;;7.10;;
15104;SDS011;7653;48.994;9.212;2023-04-06T11:43:50;9.17;;;7.13;;
15104;SDS011;7653;48.994;9.212;2023-04-06T11:46:17;10.47;;;7.50;;
15104;SDS011;7653;48.994;9.212;2023-04-06T11:48:46;8.83;;;6.20;;
15104;SDS011;7653;48.994;9.212;2023-04-06T11:51:12;9.40;;;7.33;;
15104;SDS011;7653;48.994;9.212;2023-04-06T11:53:46;10.87;;;6.70;;
15104;SDS011;7653;48.994;9.212;2023-04-06T11:56:22;11.90;;;7.30;;
15104;SDS011;7653;48.994;9.212;2023-04-06T11:58:57;11.17;;;7.47;;
15104;SDS011;7653;48.994;9.212;2023-04-06T12:01:24;9.97;;;7.33;;
15104;SDS011;7653;48.994;9.212;2023-04-06T12:03:51;9.20;;;7.80;;
15104;SDS011;7653;48.994;9.212;2023-04-06T12:06:17;9.83;;;7.30;;
15104;SDS011;7653;48.994;9.212;2023-04-06T12:08:43;9.60;;;7.80;;
15104;SDS011;7653;48.994;9.212;2023-04-06T12:11:12;12.47;;;7.93;;
15104;SDS011;7653;48.994;9.212;2023-04-06T12:13:37;11.10;;;7.87;;
15104;SDS011;7653;48.994;9.212;2023-04-06T12:16:03;10.27;;;6.63;;
15104;SDS011;7653;48.994;9.212;2023-04-06T12:18:31;9.17;;;6.53;;
15104;SDS011;7653;48.994;9.212;2023-04-06T12:20:57;9.80;;;7.00;;
15104;SDS011;7653;48.994;9.212;2023-04-06T12:23:23;9.23;;;7.30;;
15104;SDS011;7653;48.994;9.212;2023-04-06T12:25:48;11.87;;;7.80;;
15104;SDS011;7653;48.994;9.212;2023-04-06T12:28:14;8.83;;;7.17;;
15104;SDS011;7653;48.994;9.212;2023-04-06T12:30:40;10.23;;;7.47;;
15104;SDS011;7653;48.994;9.212;2023-04-06T12:33:06;9.37;;;6.60;;
15104;SDS011;7653;48.994;9.212;2023-04-06T12:35:35;9.80;;;6.70;;
15104;SDS011;7653;48.994;9.212;2023-04-06T12:38:02;10.73;;;7.53;;
15104;SDS011;7653;48.994;9.212;2023-04-06T12:40:28;11.27;;;7.53;;
15104;SDS011;7653;48.994;9.212;2023-04-06T12:42:54;9.67;;;7.40;;
15104;SDS011;7653;48.994;9.212;2023-04-06T12:45:20;12.00;;;6.90;;
15104;SDS011;7653;48.994;9.212;2023-04-06T12:47:45;10.27;;;7.30;;
15104;SDS011;7653;48.994;9.212;2023-04-06T12:50:11;9.17;;;7.53;;
15104;SDS011;7653;48.994;9.212;2023-04-06T12:52:37;8.77;;;7.17;;
15104;SDS011;7653;48.994;9.212;2023-04-06T12:55:03;10.37;;;7.23;;
15104;SDS011;7653;48.994;9.212;2023-04-06T12:57:30;9.13;;;7.30;;
15104;SDS011;7653;48.994;9.212;2023-04-06T12:59:56;13.50;;;7.90;;
15104;SDS011;7653;48.994;9.212;2023-04-06T13:02:22;9.97;;;7.57;;
15104;SDS011;7653;48.994;9.212;2023-04-06T13:04:48;9.27;;;7.27;;
15104;SDS011;7653;48.994;9.212;2023-04-06T13:07:15;10.47;;;7.50;;
15104;SDS011;7653;48.994;9.212;2023-04-06T13:09:41;9.83;;;7.60;;
15104;SDS011;7653;48.994;9.212;2023-04-06T13:12:06;9.53;;;6.60;;
15104;SDS011;7653;48.994;9.212;2023-04-06T13:14:32;9.23;;;7.43;;
15104;SDS011;7653;48.994;9.212;2023-04-06T13:16:58;8.10;;;6.80;;
15104;SDS011;7653;48.994;9.212;2023-04-06T13:19:25;8.33;;;7.00;;
15104;SDS011;7653;48.994;9.212;2023-04-06T13:21:51;8.67;;;6.90;;
15104;SDS011;7653;48.994;9.212;2023-04-06T13:24:17;8.17;;;7.37;;
15104;SDS011;7653;48.994;9.212;2023-04-06T13:26:44;9.33;;;7.40;;
15104;SDS011;7653;48.994;9.212;2023-04-06T13:29:10;8.70;;;7.80;;
15104;SDS011;7653;48.994;9.212;2023-04-06T13:31:36;9.17;;;7.37;;
15104;SDS011;7653;48.994;9.212;2023-04-06T13:34:02;9.90;;;7.77;;
15104;SDS011;7653;48.994;9.212;2023-04-06T13:36:27;8.90;;;7.40;;
15104;SDS011;7653;48.994;9.212;2023-04-06T13:38:53;13.77;;;7.10;;
15104;SDS011;7653;48.994;9.212;2023-04-06T13:41:20;7.97;;;6.77;;
15104;SDS011;7653;48.994;9.212;2023-04-06T13:43:47;10.07;;;7.67;;
15104;SDS011;7653;48.994;9.212;2023-04-06T13:46:13;9.07;;;7.40;;
15104;SDS011;7653;48.994;9.212;2023-04-06T13:48:40;8.33;;;7.53;;
15104;SDS011;7653;48.994;9.212;2023-04-06T13:51:11;8.20;;;7.13;;
15104;SDS011;7653;48.994;9.212;2023-04-06T13:53:38;8.23;;;7.10;;
15104;SDS011;7653;48.994;9.212;2023-04-06T13:56:04;11.70;;;7.70;;
15104;SDS011;7653;48.994;9.212;2023-04-06T13:58:30;10.10;;;7.97;;
15104;SDS011;7653;48.994;9.212;2023-04-06T14:01:06;9.03;;;7.43;;
15104;SDS011;7653;48.994;9.212;2023-04-06T14:03:34;8.87;;;7.37;;
15104;SDS011;7653;48.994;9.212;2023-04-06T14:06:00;9.60;;;7.40;;
15104;SDS011;7653;48.994;9.212;2023-04-06T14:08:26;9.50;;;7.10;;
15104;SDS011;7653;48.994;9.212;2023-04-06T14:10:52;10.57;;;7.20;;
15104;SDS011;7653;48.994;9.212;2023-04-06T14:13:19;10.80;;;7.03;;
15104;SDS011;7653;48.994;9.212;2023-04-06T14:15:45;9.50;;;6.97;;
15104;SDS011;7653;48.994;9.212;2023-04-06T14:18:11;11.20;;;7.20;;
15104;SDS011;7653;48.994;9.212;2023-04-06T14:20:37;9.90;;;7.50;;
15104;SDS011;7653;48.994;9.212;2023-04-06T14:23:02;11.93;;;7.73;;
15104;SDS011;7653;48.994;9.212;2023-04-06T14:25:28;10.30;;;6.80;;
15104;SDS011;7653;48.994;9.212;2023-04-06T14:27:59;9.03;;;6.93;;
15104;SDS011;7653;48.994;9.212;2023-04-06T14:30:25;10.13;;;7.57;;
15104;SDS011;7653;48.994;9.212;2023-04-06T14:32:50;10.47;;;7.20;;
15104;SDS011;7653;48.994;9.212;2023-04-06T14:35:16;8.23;;;6.80;;
15104;SDS011;7653;48.994;9.212;2023-04-06T14:37:42;8.37;;;7.20;;
15104;SDS011;7653;48.994;9.212;2023-04-06T14:40:08;7.80;;;6.90;;
15104;SDS011;7653;48.994;9.212;2023-04-06T14:42:35;9.30;;;7.37;;
15104;SDS011;7653;48.994;9.212;2023-04-06T14:45:01;9.50;;;7.90;;
15104;SDS011;7653;48.994;9.212;2023-04-06T14:47:27;9.40;;;7.20;;
15104;SDS011;7653;48.994;9.212;2023-04-06T14:49:53;10.23;;;7.57;;
15104;SDS011;7653;48.994;9.212;2023-04-06T14:52:18;8.43;;;6.97;;
15104;SDS011;7653;48.994;9.212;2023-04-06T14:54:44;9.87;;;6.47;;
15104;SDS011;7653;48.994;9.212;2023-04-06T14:57:10;7.87;;;6.57;;
15104;SDS011;7653;48.994;9.212;2023-04-06T14:59:36;8.87;;;7.00;;